Time;durP1;ratioP1;P1;durP2;ratioP2;P2;SDS_P1;SDS_P2;PMS_P1;PMS_P2;Temp;Humidity;BMP_temperature;BMP_pressure;BME280_temperature;BME280_humidity;BME280_pressure;Samples;Min_cycle;Max_cycle;Signal;HPM_P1;HPM_P2
2021/05/17 00:02:58;;;;;;;;;;;9.10;99.90;;;;;;8361863;28;19967;-68
2021/05/17 00:06:59;;;;;;;;;;;9.20;99.90;;;;;;8362117;28;19925;-68
2021/05/17 00:10:59;;;;;;;;;;;9.30;99.90;;;;;;8362112;28;19943;-68
2021/05/17 00:15:00;;;;;;;;;;;9.30;99.90;;;;;;8361459;28;19908;-68
2021/05/17 00:19:00;;;;;;;;;;;9.40;99.90;;;;;;8361739;28;19913;-68
2021/05/17 00:23:01;;;;;;;;;;;9.30;99.90;;;;;;8361445;28;19909;-68
2021/05/17 00:27:02;;;;;;;;;;;9.30;99.90;;;;;;8361683;28;19920;-67
2021/05/17 00:31:02;;;;;;;;;;;9.20;99.90;;;;;;8361011;28;19992;-67
2021/05/17 00:35:03;;;;;;;;;;;9.20;99.90;;;;;;8361104;28;19943;-68
2021/05/17 00:39:05;;;;;;;;;;;9.10;99.90;;;;;;8360881;28;20374;-68
2021/05/17 00:43:07;;;;;;;;;;;9.00;99.90;;;;;;8361034;28;19909;-68
2021/05/17 00:47:11;;;;;;;;;;;9.00;99.90;;;;;;8361063;28;20007;-68
2021/05/17 00:51:11;;;;;;;;;;;9.00;99.90;;;;;;8361271;28;20302;-68
2021/05/17 00:55:12;;;;;;;;;;;9.00;99.90;;;;;;8342963;28;19912;-68
2021/05/17 00:59:12;;;;;;;;;;;8.90;99.90;;;;;;8360960;28;20007;-68
2021/05/17 01:03:13;;;;;;;;;;;8.90;99.90;;;;;;8360385;28;19909;-68
2021/05/17 01:07:14;;;;;;;;;;;8.90;99.90;;;;;;8360738;28;20383;-68
2021/05/17 01:11:17;;;;;;;;;;;9.00;99.90;;;;;;8360538;28;19909;-68
2021/05/17 01:15:18;;;;;;;;;;;8.90;99.90;;;;;;8359820;28;19992;-68
2021/05/17 01:19:24;;;;;;;;;;;8.90;99.90;;;;;;8359964;28;19919;-68
2021/05/17 01:27:26;;;;;;;;;;;8.70;99.90;;;;;;8360327;28;19909;-68
2021/05/17 01:31:26;;;;;;;;;;;8.60;99.90;;;;;;8359815;28;19935;-68
2021/05/17 01:35:27;;;;;;;;;;;8.60;99.90;;;;;;8359112;28;19909;-67
2021/05/17 01:39:27;;;;;;;;;;;8.40;99.90;;;;;;8359259;28;19913;-68
2021/05/17 01:43:31;;;;;;;;;;;8.40;99.90;;;;;;8359130;28;19909;-68
2021/05/17 01:47:37;;;;;;;;;;;8.30;99.90;;;;;;8358759;28;19908;-68
2021/05/17 01:51:38;;;;;;;;;;;8.30;99.90;;;;;;8341468;28;19909;-68
2021/05/17 01:55:40;;;;;;;;;;;8.30;99.90;;;;;;8340805;28;19948;-68
2021/05/17 01:59:40;;;;;;;;;;;8.20;99.90;;;;;;8358790;28;19913;-68
2021/05/17 02:03:42;;;;;;;;;;;8.20;99.90;;;;;;8358347;28;20401;-68
2021/05/17 02:07:42;;;;;;;;;;;8.20;99.90;;;;;;8358955;28;19928;-67
2021/05/17 02:11:43;;;;;;;;;;;8.20;99.90;;;;;;8359565;28;20474;-68
2021/05/17 02:15:44;;;;;;;;;;;8.30;99.90;;;;;;8358136;28;19915;-67
2021/05/17 02:19:45;;;;;;;;;;;8.50;99.90;;;;;;8340769;28;19912;-68
2021/05/17 02:23:46;;;;;;;;;;;8.40;99.90;;;;;;8358320;28;20429;-68
2021/05/17 02:27:46;;;;;;;;;;;8.40;99.90;;;;;;8358548;28;19915;-68
2021/05/17 02:31:47;;;;;;;;;;;8.30;99.90;;;;;;8358574;28;19915;-68
2021/05/17 02:35:48;;;;;;;;;;;8.30;99.90;;;;;;8358004;28;20374;-68
2021/05/17 02:39:48;;;;;;;;;;;8.20;99.90;;;;;;8340419;28;19920;-68
2021/05/17 02:43:49;;;;;;;;;;;8.10;99.90;;;;;;8358102;28;19959;-68
2021/05/17 02:47:49;;;;;;;;;;;8.10;99.90;;;;;;8357649;28;19931;-68
2021/05/17 02:51:50;;;;;;;;;;;8.00;99.90;;;;;;8359297;28;19951;-67
2021/05/17 02:55:53;;;;;;;;;;;7.90;99.90;;;;;;8363666;28;19912;-68
2021/05/17 03:00:09;;;;;;;;;;;7.80;99.90;;;;;;8363894;28;20367;-68
2021/05/17 03:04:15;;;;;;;;;;;7.80;99.90;;;;;;8363473;28;19917;-68
2021/05/17 03:08:19;;;;;;;;;;;7.70;99.90;;;;;;8363908;28;19917;-68
2021/05/17 03:12:21;;;;;;;;;;;7.70;99.90;;;;;;8363638;28;19909;-68
2021/05/17 03:16:22;;;;;;;;;;;7.60;99.90;;;;;;8363526;28;19916;-67
2021/05/17 03:20:23;;;;;;;;;;;7.60;99.90;;;;;;8363325;28;20379;-68
2021/05/17 03:24:24;;;;;;;;;;;7.60;99.90;;;;;;8363074;28;19966;-67
2021/05/17 03:28:24;;;;;;;;;;;7.60;99.90;;;;;;8362931;28;19909;-68
2021/05/17 03:32:26;;;;;;;;;;;7.60;99.90;;;;;;8362971;28;19918;-67
2021/05/17 03:36:27;;;;;;;;;;;7.50;99.90;;;;;;8362984;28;20095;-68
2021/05/17 03:40:27;;;;;;;;;;;7.50;99.90;;;;;;8362777;28;19913;-68
2021/05/17 03:44:28;;;;;;;;;;;7.50;99.90;;;;;;8362309;28;19987;-68
2021/05/17 03:48:28;;;;;;;;;;;7.50;99.90;;;;;;8362034;28;20019;-68
2021/05/17 03:52:29;;;;;;;;;;;7.60;99.90;;;;;;8362504;28;19909;-68
2021/05/17 03:56:29;;;;;;;;;;;7.60;99.90;;;;;;8362100;28;19913;-68
2021/05/17 04:00:31;;;;;;;;;;;7.70;99.90;;;;;;8362049;28;19913;-68
2021/05/17 04:04:38;;;;;;;;;;;7.70;99.90;;;;;;8353462;28;20298;-68
2021/05/17 04:17:00;;;;;;;;;;;7.90;99.90;;;;;;8359095;28;19967;-68
2021/05/17 04:21:01;;;;;;;;;;;8.00;99.90;;;;;;8359113;28;19909;-68
2021/05/17 04:25:02;;;;;;;;;;;8.10;99.90;;;;;;8361499;28;19951;-68
2021/05/17 04:29:03;;;;;;;;;;;8.20;99.90;;;;;;8361615;28;19970;-68
2021/05/17 04:33:03;;;;;;;;;;;8.30;99.90;;;;;;8352841;28;19924;-68
2021/05/17 04:37:04;;;;;;;;;;;8.40;99.90;;;;;;8344257;28;19917;-68
2021/05/17 04:41:04;;;;;;;;;;;8.50;99.90;;;;;;8352135;28;19920;-69
2021/05/17 04:45:05;;;;;;;;;;;8.60;99.90;;;;;;8343676;28;19913;-68
2021/05/17 04:49:05;;;;;;;;;;;8.70;99.90;;;;;;8342706;28;19945;-68
2021/05/17 04:53:06;;;;;;;;;;;8.80;99.90;;;;;;8359815;28;19913;-69
2021/05/17 04:57:06;;;;;;;;;;;8.90;99.90;;;;;;8345186;28;19967;-65
2021/05/17 05:01:07;;;;;;;;;;;8.90;99.90;;;;;;8330025;28;20407;-65
2021/05/17 05:05:08;;;;;;;;;;;9.10;99.90;;;;;;8353492;28;19916;-64
2021/05/17 05:09:08;;;;;;;;;;;9.10;99.90;;;;;;8360232;28;19908;-64
2021/05/17 05:13:09;;;;;;;;;;;9.00;99.90;;;;;;8358304;28;19920;-65
2021/05/17 05:17:10;;;;;;;;;;;9.00;99.90;;;;;;8342493;28;20011;-64
2021/05/17 05:21:10;;;;;;;;;;;9.10;99.90;;;;;;8339525;28;19970;-65
2021/05/17 05:25:11;;;;;;;;;;;9.20;99.90;;;;;;8333906;28;19924;-64
2021/05/17 05:29:20;;;;;;;;;;;9.40;99.90;;;;;;8358378;28;20024;-65
2021/05/17 05:33:21;;;;;;;;;;;9.40;99.90;;;;;;8358892;28;19913;-65
2021/05/17 05:37:21;;;;;;;;;;;9.60;99.90;;;;;;8337935;28;20459;-64
2021/05/17 05:41:22;;;;;;;;;;;9.60;99.90;;;;;;8341224;28;20413;-64
2021/05/17 05:45:23;;;;;;;;;;;9.80;99.90;;;;;;8356686;28;19963;-64
2021/05/17 05:49:24;;;;;;;;;;;9.90;99.90;;;;;;8353427;28;20514;-65
2021/05/17 05:53:25;;;;;;;;;;;9.90;99.90;;;;;;8357626;28;19917;-65
2021/05/17 05:57:26;;;;;;;;;;;10.00;99.90;;;;;;8358348;28;19920;-65
2021/05/17 06:01:27;;;;;;;;;;;10.00;99.90;;;;;;8358032;28;19913;-65
2021/05/17 06:05:27;;;;;;;;;;;10.40;99.90;;;;;;8356489;28;19920;-65
2021/05/17 06:09:28;;;;;;;;;;;10.50;99.90;;;;;;8358107;28;19913;-66
2021/05/17 06:13:29;;;;;;;;;;;10.50;99.90;;;;;;8357122;28;19916;-65
2021/05/17 06:17:29;;;;;;;;;;;10.40;99.90;;;;;;8357847;28;20364;-66
2021/05/17 06:21:30;;;;;;;;;;;10.40;99.90;;;;;;8349011;28;19919;-65
2021/05/17 06:25:30;;;;;;;;;;;10.30;99.90;;;;;;8358163;28;19913;-65
2021/05/17 06:29:31;;;;;;;;;;;10.10;99.90;;;;;;8364377;28;19932;-65
2021/05/17 06:33:32;;;;;;;;;;;10.40;99.90;;;;;;8364198;28;19912;-65
2021/05/17 06:37:32;;;;;;;;;;;10.50;99.90;;;;;;8363337;28;19923;-65
2021/05/17 06:41:33;;;;;;;;;;;10.40;99.90;;;;;;8363185;28;19935;-65
2021/05/17 06:45:34;;;;;;;;;;;10.40;99.90;;;;;;8363610;28;19916;-65
2021/05/17 06:49:35;;;;;;;;;;;10.70;99.90;;;;;;8363995;28;20548;-65
2021/05/17 06:53:36;;;;;;;;;;;10.90;99.90;;;;;;8364156;28;19908;-65
2021/05/17 07:01:43;;;;;;;;;;;11.00;99.90;;;;;;8363099;28;19916;-65
2021/05/17 07:05:44;;;;;;;;;;;11.20;99.90;;;;;;8363665;28;19960;-66
2021/05/17 07:14:03;;;;;;;;;;;11.60;99.90;;;;;;8364205;28;19963;-66
2021/05/17 07:18:04;;;;;;;;;;;11.60;99.90;;;;;;8363925;28;20367;-66
2021/05/17 07:26:24;;;;;;;;;;;11.10;99.90;;;;;;8334978;28;20072;-65
2021/05/17 07:30:26;;;;;;;;;;;11.50;99.90;;;;;;8335485;28;19913;-66
2021/05/17 07:34:28;;;;;;;;;;;11.50;99.90;;;;;;8363294;28;19909;-66
2021/05/17 07:38:31;;;;;;;;;;;11.60;99.90;;;;;;8363028;28;19913;-66
2021/05/17 07:42:31;;;;;;;;;;;11.80;99.90;;;;;;8363080;28;19999;-66
2021/05/17 07:46:32;;;;;;;;;;;11.80;99.90;;;;;;8359852;28;19947;-66
2021/05/17 07:50:32;;;;;;;;;;;12.00;99.90;;;;;;8362013;28;20046;-66
2021/05/17 07:54:33;;;;;;;;;;;11.80;99.90;;;;;;8359618;28;19921;-65
2021/05/17 07:58:33;;;;;;;;;;;11.80;99.90;;;;;;8359463;28;19975;-66
2021/05/17 08:02:34;;;;;;;;;;;11.60;99.90;;;;;;8356280;28;19958;-66
2021/05/17 08:06:34;;;;;;;;;;;11.70;99.90;;;;;;8364764;28;19923;-66
2021/05/17 08:10:35;;;;;;;;;;;11.50;99.90;;;;;;8364775;28;20480;-65
2021/05/17 08:14:35;;;;;;;;;;;11.40;99.90;;;;;;8364286;28;19996;-66
2021/05/17 08:18:37;;;;;;;;;;;11.70;99.90;;;;;;8364791;28;19921;-66
2021/05/17 08:22:37;;;;;;;;;;;11.90;99.90;;;;;;8365702;28;19913;-65
2021/05/17 08:26:39;;;;;;;;;;;12.50;99.90;;;;;;8364366;28;20054;-65
2021/05/17 08:30:42;;;;;;;;;;;12.10;99.90;;;;;;8361445;28;19920;-65
2021/05/17 08:34:42;;;;;;;;;;;12.40;99.90;;;;;;8361742;28;20344;-66
2021/05/17 08:38:43;;;;;;;;;;;12.60;99.90;;;;;;8361630;28;19916;-66
2021/05/17 08:42:44;;;;;;;;;;;12.40;99.90;;;;;;8361606;28;19916;-65
2021/05/17 08:46:47;;;;;;;;;;;12.30;99.90;;;;;;8363740;28;20282;-65
2021/05/17 08:50:47;;;;;;;;;;;12.30;99.90;;;;;;8343382;28;20500;-65
2021/05/17 08:54:48;;;;;;;;;;;12.40;99.90;;;;;;8350513;28;19913;-65
2021/05/17 08:58:53;;;;;;;;;;;12.20;99.90;;;;;;8331248;28;19917;-65
2021/05/17 09:02:54;;;;;;;;;;;12.20;99.90;;;;;;8318113;28;19958;-65
2021/05/17 09:06:55;;;;;;;;;;;12.30;99.90;;;;;;8354392;28;19921;-65
2021/05/17 09:10:56;;;;;;;;;;;12.10;99.90;;;;;;8342814;28;20383;-65
2021/05/17 09:14:56;;;;;;;;;;;12.40;99.90;;;;;;8343221;28;19967;-64
2021/05/17 09:18:56;;;;;;;;;;;12.60;99.90;;;;;;8357821;28;19920;-64
2021/05/17 09:23:09;;;;;;;;;;;12.50;99.90;;;;;;8358367;28;19936;-65
2021/05/17 09:27:12;;;;;;;;;;;12.20;99.90;;;;;;8328720;28;19913;-66
2021/05/17 09:31:17;;;;;;;;;;;12.30;99.90;;;;;;8311872;28;19975;-65
2021/05/17 09:35:19;;;;;;;;;;;12.60;99.90;;;;;;8354007;28;20016;-66
2021/05/17 09:39:19;;;;;;;;;;;13.30;99.90;;;;;;8358477;28;19936;-66
2021/05/17 09:43:20;;;;;;;;;;;13.00;99.90;;;;;;8354724;28;19958;-66
2021/05/17 09:47:21;;;;;;;;;;;13.10;99.90;;;;;;8348902;28;20449;-66
2021/05/17 09:51:21;;;;;;;;;;;13.10;99.90;;;;;;8338151;28;19917;-65
2021/05/17 09:55:23;;;;;;;;;;;13.20;99.90;;;;;;8339871;28;19909;-65
2021/05/17 09:59:23;;;;;;;;;;;12.90;99.90;;;;;;8358714;28;19917;-65
2021/05/17 10:03:24;;;;;;;;;;;13.00;99.90;;;;;;8362574;28;19913;-65
2021/05/17 10:07:24;;;;;;;;;;;13.10;99.90;;;;;;8362671;28;19963;-65
2021/05/17 10:11:26;;;;;;;;;;;13.60;99.90;;;;;;8365410;28;19909;-65
2021/05/17 10:15:28;;;;;;;;;;;13.50;99.90;;;;;;8364752;28;19963;-65
2021/05/17 10:19:28;;;;;;;;;;;13.30;99.90;;;;;;8365186;28;20011;-65
2021/05/17 10:23:29;;;;;;;;;;;13.40;99.90;;;;;;8361488;28;19919;-65
2021/05/17 10:27:31;;;;;;;;;;;13.70;99.90;;;;;;8350261;28;19913;-65
2021/05/17 10:31:33;;;;;;;;;;;13.70;99.90;;;;;;8353108;28;19958;-65
2021/05/17 10:35:35;;;;;;;;;;;14.10;99.90;;;;;;8351366;28;19983;-65
2021/05/17 10:39:44;;;;;;;;;;;14.20;99.90;;;;;;8355253;28;19912;-66
2021/05/17 10:43:52;;;;;;;;;;;13.60;99.90;;;;;;8364141;28;20291;-65
2021/05/17 10:48:11;;;;;;;;;;;13.50;99.90;;;;;;8336019;28;19928;-65
2021/05/17 10:52:12;;;;;;;;;;;12.70;99.90;;;;;;8346468;28;19912;-66
2021/05/17 10:56:14;;;;;;;;;;;12.40;99.90;;;;;;8362179;28;20302;-66
2021/05/17 11:04:25;;;;;;;;;;;13.10;99.90;;;;;;8355712;28;20511;-65
2021/05/17 11:08:29;;;;;;;;;;;13.80;99.90;;;;;;8327063;28;20035;-64
2021/05/17 11:12:29;;;;;;;;;;;14.30;99.90;;;;;;8355047;28;20000;-64
2021/05/17 11:16:33;;;;;;;;;;;14.50;99.90;;;;;;8357631;28;20203;-65
2021/05/17 11:20:49;;;;;;;;;;;15.50;99.90;;;;;;8359993;28;20418;-64
2021/05/17 11:24:54;;;;;;;;;;;15.50;99.90;;;;;;8359981;28;20689;-64
2021/05/17 11:28:56;;;;;;;;;;;15.00;99.90;;;;;;8361915;28;19995;-64
2021/05/17 11:33:16;;;;;;;;;;;14.60;99.90;;;;;;8361169;28;20357;-64
2021/05/17 11:37:16;;;;;;;;;;;14.50;99.90;;;;;;8336610;28;20377;-64
2021/05/17 11:41:19;;;;;;;;;;;14.10;99.90;;;;;;8352443;28;19913;-64
2021/05/17 11:45:23;;;;;;;;;;;13.20;99.90;;;;;;8345327;28;19919;-64
2021/05/17 11:49:24;;;;;;;;;;;13.40;99.90;;;;;;8338293;28;20307;-64
2021/05/17 11:53:25;;;;;;;;;;;15.90;99.90;;;;;;8345744;28;19990;-64
2021/05/17 11:57:26;;;;;;;;;;;16.90;99.90;;;;;;8355296;28;19943;-65
2021/05/17 12:01:27;;;;;;;;;;;17.30;99.90;;;;;;8360562;28;19917;-67
2021/05/17 12:05:27;;;;;;;;;;;16.50;99.90;;;;;;8360273;28;20002;-65
2021/05/17 12:09:29;;;;;;;;;;;15.20;99.90;;;;;;8360923;28;19912;-66
2021/05/17 12:13:29;;;;;;;;;;;15.30;99.90;;;;;;8361655;28;19909;-66
2021/05/17 12:17:32;;;;;;;;;;;15.30;99.90;;;;;;8342170;28;20398;-66
2021/05/17 12:21:34;;;;;;;;;;;15.30;99.90;;;;;;8360421;28;20159;-66
2021/05/17 12:25:35;;;;;;;;;;;15.40;99.90;;;;;;8341666;28;20010;-65
2021/05/17 12:29:53;;;;;;;;;;;14.60;99.90;;;;;;8360660;28;19919;-66
2021/05/17 12:33:54;;;;;;;;;;;13.80;99.90;;;;;;8358897;28;19920;-65
2021/05/17 12:37:59;;;;;;;;;;;13.60;99.90;;;;;;8360206;28;19967;-66
2021/05/17 12:42:11;;;;;;;;;;;13.70;99.90;;;;;;8357210;28;19913;-65
2021/05/17 12:46:13;;;;;;;;;;;13.50;99.90;;;;;;8357027;28;20394;-66
2021/05/17 12:50:18;;;;;;;;;;;13.20;99.90;;;;;;8359218;28;19981;-64
2021/05/17 12:54:20;;;;;;;;;;;15.00;99.90;;;;;;8358939;28;19913;-66
2021/05/17 12:58:41;;;;;;;;;;;16.00;99.90;;;;;;8360151;28;19917;-66
2021/05/17 13:02:42;;;;;;;;;;;16.10;99.90;;;;;;8353547;28;20434;-66
2021/05/17 13:06:44;;;;;;;;;;;15.40;99.90;;;;;;8357787;28;19924;-66
2021/05/17 13:10:55;;;;;;;;;;;16.30;99.90;;;;;;8359368;28;19909;-66
2021/05/17 13:14:55;;;;;;;;;;;17.70;99.90;;;;;;8338450;28;19960;-66
2021/05/17 13:23:46;;;;;;;;;;;17.00;99.90;;;;;;8357070;28;19928;-66
2021/05/17 13:32:09;;;;;;;;;;;18.20;99.90;;;;;;8355908;28;20018;-67
2021/05/17 13:36:14;;;;;;;;;;;19.80;99.00;;;;;;8357476;28;19935;-67
2021/05/17 13:40:15;;;;;;;;;;;20.50;95.20;;;;;;8355056;28;19923;-69
2021/05/17 13:44:15;;;;;;;;;;;19.60;93.80;;;;;;8357074;28;19909;-67
2021/05/17 13:48:16;;;;;;;;;;;17.60;99.50;;;;;;8357532;28;20390;-65
2021/05/17 13:52:16;;;;;;;;;;;15.50;99.90;;;;;;8357359;28;20384;-67
2021/05/17 13:56:17;;;;;;;;;;;13.80;99.90;;;;;;8354269;28;20693;-67
2021/05/17 14:00:19;;;;;;;;;;;15.50;99.90;;;;;;8357869;28;19939;-67
2021/05/17 14:04:19;;;;;;;;;;;19.20;99.90;;;;;;8355468;28;19921;-68
2021/05/17 14:08:20;;;;;;;;;;;20.70;98.10;;;;;;8357655;28;20529;-67
2021/05/17 14:12:20;;;;;;;;;;;20.70;96.70;;;;;;8357496;28;19952;-66
2021/05/17 14:16:21;;;;;;;;;;;18.90;98.30;;;;;;8350696;28;19947;-67
2021/05/17 14:20:21;;;;;;;;;;;17.10;99.90;;;;;;8358178;28;19920;-68
2021/05/17 14:24:22;;;;;;;;;;;15.70;99.90;;;;;;8352710;28;19917;-67
2021/05/17 14:28:23;;;;;;;;;;;14.70;99.90;;;;;;8354845;28;19929;-66
2021/05/17 14:32:23;;;;;;;;;;;14.40;99.90;;;;;;8352333;28;20358;-66
2021/05/17 14:36:24;;;;;;;;;;;16.90;99.90;;;;;;8357392;28;20051;-67
2021/05/17 14:40:24;;;;;;;;;;;17.00;99.90;;;;;;8346109;28;20379;-67
2021/05/17 14:44:26;;;;;;;;;;;17.20;99.90;;;;;;8332710;28;20009;-67
2021/05/17 14:48:26;;;;;;;;;;;16.40;99.90;;;;;;8354650;28;19912;-66
2021/05/17 14:52:29;;;;;;;;;;;16.30;99.90;;;;;;8353010;28;19939;-67
2021/05/17 14:56:29;;;;;;;;;;;16.50;99.90;;;;;;8344619;28;19921;-66
2021/05/17 15:00:32;;;;;;;;;;;16.80;99.90;;;;;;8361473;28;20398;-66
2021/05/17 15:04:33;;;;;;;;;;;16.60;99.90;;;;;;8352920;28;19923;-66
2021/05/17 15:08:33;;;;;;;;;;;15.50;99.90;;;;;;8346325;28;19913;-66
2021/05/17 15:12:34;;;;;;;;;;;15.00;99.90;;;;;;8352936;28;19978;-66
2021/05/17 15:16:35;;;;;;;;;;;17.00;99.90;;;;;;8356167;28;19912;-66
2021/05/17 15:20:35;;;;;;;;;;;18.80;98.80;;;;;;8352511;28;19925;-66
2021/05/17 15:24:36;;;;;;;;;;;17.40;99.90;;;;;;8348880;28;19917;-65
2021/05/17 15:28:36;;;;;;;;;;;15.20;99.90;;;;;;8349827;28;20295;-66
2021/05/17 15:32:37;;;;;;;;;;;14.10;99.90;;;;;;8359468;28;20341;-66
2021/05/17 15:36:37;;;;;;;;;;;13.80;99.90;;;;;;8359892;28;19913;-66
2021/05/17 15:40:39;;;;;;;;;;;13.50;99.90;;;;;;8354320;28;19948;-66
2021/05/17 15:44:40;;;;;;;;;;;13.50;99.90;;;;;;8356008;28;20024;-66
2021/05/17 15:48:44;;;;;;;;;;;15.40;99.90;;;;;;8347084;28;20019;-66
2021/05/17 15:52:44;;;;;;;;;;;14.90;99.90;;;;;;8343444;28;19912;-66
2021/05/17 15:56:45;;;;;;;;;;;15.50;99.90;;;;;;8358380;28;20288;-66
2021/05/17 16:00:46;;;;;;;;;;;15.40;99.90;;;;;;8359094;28;19959;-66
2021/05/17 16:04:47;;;;;;;;;;;14.50;99.90;;;;;;8360603;28;19928;-66
2021/05/17 16:08:47;;;;;;;;;;;14.10;99.90;;;;;;8361609;28;19923;-66
2021/05/17 16:13:03;;;;;;;;;;;14.40;99.90;;;;;;8361279;28;19995;-66
2021/05/17 16:21:26;;;;;;;;;;;13.60;99.90;;;;;;8333707;28;19924;-66
2021/05/17 16:25:26;;;;;;;;;;;13.80;99.90;;;;;;8328084;28;19909;-66
2021/05/17 16:29:27;;;;;;;;;;;14.00;99.90;;;;;;8332317;28;19940;-66
2021/05/17 16:33:27;;;;;;;;;;;13.90;99.90;;;;;;8341292;28;19913;-66
2021/05/17 16:37:28;;;;;;;;;;;13.60;99.90;;;;;;8339435;28;19936;-67
2021/05/17 16:41:28;;;;;;;;;;;16.80;99.90;;;;;;8338617;28;19916;-66
2021/05/17 16:45:29;;;;;;;;;;;17.80;99.90;;;;;;8347655;28;19948;-66
2021/05/17 16:49:30;;;;;;;;;;;17.10;99.90;;;;;;8351127;28;19939;-64
2021/05/17 16:53:30;;;;;;;;;;;15.20;99.90;;;;;;8348805;28;19913;-64
2021/05/17 16:57:32;;;;;;;;;;;14.70;99.90;;;;;;8354382;28;19932;-65
2021/05/17 17:01:39;;;;;;;;;;;16.80;99.90;;;;;;8338138;28;20334;-64
2021/05/17 17:05:40;;;;;;;;;;;18.10;99.90;;;;;;8356877;28;19963;-63
2021/05/17 17:09:42;;;;;;;;;;;15.90;99.90;;;;;;8356999;28;19917;-65
2021/05/17 17:13:42;;;;;;;;;;;14.50;99.90;;;;;;8358220;28;19928;-65
2021/05/17 17:17:43;;;;;;;;;;;13.80;99.90;;;;;;8358732;28;19921;-64
2021/05/17 17:21:45;;;;;;;;;;;13.20;99.90;;;;;;8358685;28;19917;-63
2021/05/17 17:25:45;;;;;;;;;;;13.00;99.90;;;;;;8356310;28;19912;-64
2021/05/17 17:29:46;;;;;;;;;;;12.90;99.90;;;;;;8316250;28;19913;-62
2021/05/17 17:33:46;;;;;;;;;;;12.80;99.90;;;;;;8352860;28;19961;-62
2021/05/17 17:37:47;;;;;;;;;;;12.80;99.90;;;;;;8347819;28;19971;-63
2021/05/17 17:41:47;;;;;;;;;;;13.20;99.90;;;;;;8357557;28;20003;-63
2021/05/17 17:45:48;;;;;;;;;;;13.90;99.90;;;;;;8357845;28;20003;-63
2021/05/17 17:49:48;;;;;;;;;;;13.90;99.90;;;;;;8358196;28;19954;-62
2021/05/17 17:53:49;;;;;;;;;;;13.40;99.90;;;;;;8355679;28;20394;-63
2021/05/17 17:57:50;;;;;;;;;;;12.70;99.90;;;;;;8357366;28;19917;-63
2021/05/17 18:01:50;;;;;;;;;;;12.60;99.90;;;;;;8358002;28;20001;-63
2021/05/17 18:05:51;;;;;;;;;;;12.50;99.90;;;;;;8347729;28;19921;-64
2021/05/17 18:09:51;;;;;;;;;;;12.30;99.90;;;;;;8357109;28;20371;-64
2021/05/17 18:13:52;;;;;;;;;;;12.20;99.90;;;;;;8356816;28;19920;-63
2021/05/17 18:17:53;;;;;;;;;;;12.10;99.90;;;;;;8357580;28;19944;-63
2021/05/17 18:21:53;;;;;;;;;;;12.00;99.90;;;;;;8350099;28;19916;-62
2021/05/17 18:25:54;;;;;;;;;;;12.00;99.90;;;;;;8344831;28;19947;-63
2021/05/17 18:29:54;;;;;;;;;;;12.00;99.90;;;;;;8356100;28;19913;-63
2021/05/17 18:33:56;;;;;;;;;;;11.80;99.90;;;;;;8350126;28;19920;-64
2021/05/17 18:37:57;;;;;;;;;;;11.80;99.90;;;;;;8347119;28;19921;-65
2021/05/17 18:41:57;;;;;;;;;;;11.70;99.90;;;;;;8314578;28;19913;-64
2021/05/17 18:45:58;;;;;;;;;;;11.70;99.90;;;;;;8330320;28;19923;-64
2021/05/17 18:49:58;;;;;;;;;;;11.50;99.90;;;;;;8329073;28;19975;-64
2021/05/17 18:54:01;;;;;;;;;;;11.30;99.90;;;;;;8310889;28;19921;-64
2021/05/17 18:58:02;;;;;;;;;;;11.20;99.90;;;;;;8337623;28;20841;-64
2021/05/17 19:02:02;;;;;;;;;;;10.90;99.90;;;;;;8339888;28;20058;-64
2021/05/17 19:06:03;;;;;;;;;;;10.80;99.90;;;;;;8345711;28;19921;-65
2021/05/17 19:10:05;;;;;;;;;;;10.60;99.90;;;;;;8326390;28;20395;-64
2021/05/17 19:14:06;;;;;;;;;;;10.50;99.90;;;;;;8350076;28;19920;-68
2021/05/17 19:18:06;;;;;;;;;;;10.50;99.90;;;;;;8351019;28;19921;-68
2021/05/17 19:22:08;;;;;;;;;;;10.40;99.90;;;;;;8352984;28;19920;-67
2021/05/17 19:26:10;;;;;;;;;;;10.30;99.90;;;;;;8360352;28;19967;-69
2021/05/17 19:30:12;;;;;;;;;;;10.20;99.90;;;;;;8358597;28;19916;-65
2021/05/17 19:34:13;;;;;;;;;;;10.30;99.90;;;;;;8358211;28;19956;-65
2021/05/17 19:38:13;;;;;;;;;;;10.30;99.90;;;;;;8358770;28;19921;-64
2021/05/17 19:42:14;;;;;;;;;;;10.20;99.90;;;;;;8333685;28;19948;-65
2021/05/17 19:46:15;;;;;;;;;;;10.20;99.90;;;;;;8314209;28;19917;-65
2021/05/17 19:50:17;;;;;;;;;;;10.20;99.90;;;;;;8316447;28;20300;-65
2021/05/17 19:54:17;;;;;;;;;;;10.10;99.90;;;;;;8346791;28;19917;-65
2021/05/17 19:58:18;;;;;;;;;;;10.10;99.90;;;;;;8335557;28;19943;-64
2021/05/17 20:02:18;;;;;;;;;;;10.00;99.90;;;;;;8342242;28;19960;-64
2021/05/17 20:06:18;;;;;;;;;;;10.00;99.90;;;;;;8357083;28;19947;-65
2021/05/17 20:10:19;;;;;;;;;;;9.90;99.90;;;;;;8358145;28;19912;-65
2021/05/17 20:14:20;;;;;;;;;;;9.90;99.90;;;;;;8357700;28;20287;-65
2021/05/17 20:18:21;;;;;;;;;;;9.90;99.90;;;;;;8356304;28;19917;-65
2021/05/17 20:22:21;;;;;;;;;;;9.90;99.90;;;;;;8357875;28;19920;-65
2021/05/17 20:26:22;;;;;;;;;;;10.00;99.90;;;;;;8357497;28;19915;-65
2021/05/17 20:30:23;;;;;;;;;;;9.90;99.90;;;;;;8357630;28;19958;-64
2021/05/17 20:38:40;;;;;;;;;;;9.80;99.90;;;;;;8361828;28;19913;-64
2021/05/17 20:42:45;;;;;;;;;;;9.80;99.90;;;;;;8361009;28;19912;-65
2021/05/17 20:46:47;;;;;;;;;;;9.80;99.90;;;;;;8342379;28;19912;-64
2021/05/17 20:50:48;;;;;;;;;;;9.80;99.90;;;;;;8360658;28;19967;-65
2021/05/17 20:54:48;;;;;;;;;;;9.70;99.90;;;;;;8360526;28;19919;-65
2021/05/17 20:58:49;;;;;;;;;;;9.80;99.90;;;;;;8360854;28;20375;-65
2021/05/17 21:02:49;;;;;;;;;;;9.80;99.90;;;;;;8360150;28;19917;-65
2021/05/17 21:06:50;;;;;;;;;;;9.80;99.90;;;;;;8360759;28;19917;-64
2021/05/17 21:10:52;;;;;;;;;;;9.80;99.90;;;;;;8360004;28;19913;-64
2021/05/17 21:14:53;;;;;;;;;;;9.70;99.90;;;;;;8359785;28;20395;-65
2021/05/17 21:18:54;;;;;;;;;;;9.70;99.90;;;;;;8360113;28;19973;-66
2021/05/17 21:22:54;;;;;;;;;;;9.70;99.90;;;;;;8359789;28;19919;-66
2021/05/17 21:26:55;;;;;;;;;;;9.70;99.90;;;;;;8359680;28;19926;-66
2021/05/17 21:30:55;;;;;;;;;;;9.60;99.90;;;;;;8359489;28;19909;-66
2021/05/17 21:34:56;;;;;;;;;;;9.60;99.90;;;;;;8358952;28;20011;-66
2021/05/17 21:38:56;;;;;;;;;;;9.60;99.90;;;;;;8359664;28;20421;-66
2021/05/17 21:42:58;;;;;;;;;;;9.70;99.90;;;;;;8359233;28;19909;-66
2021/05/17 21:46:58;;;;;;;;;;;9.60;99.90;;;;;;8359153;28;19908;-66
2021/05/17 21:50:59;;;;;;;;;;;9.60;99.90;;;;;;8359095;28;19909;-66
2021/05/17 21:55:00;;;;;;;;;;;9.60;99.90;;;;;;8340912;28;19991;-66
2021/05/17 21:59:00;;;;;;;;;;;9.60;99.90;;;;;;8359067;28;19913;-66
2021/05/17 22:03:02;;;;;;;;;;;9.60;99.90;;;;;;8358814;28;20387;-66
2021/05/17 22:07:03;;;;;;;;;;;9.60;99.90;;;;;;8358817;28;19917;-66
2021/05/17 22:11:04;;;;;;;;;;;9.60;99.90;;;;;;8358867;28;19916;-66
2021/05/17 22:15:06;;;;;;;;;;;9.50;99.90;;;;;;8358569;28;19917;-66
2021/05/17 22:19:07;;;;;;;;;;;9.50;99.90;;;;;;8358854;28;19928;-66
2021/05/17 22:23:07;;;;;;;;;;;9.50;99.90;;;;;;8340809;28;19909;-66
2021/05/17 22:27:08;;;;;;;;;;;9.40;99.90;;;;;;8358732;28;20311;-66
2021/05/17 22:31:10;;;;;;;;;;;9.30;99.90;;;;;;8358176;28;21423;-66
2021/05/17 22:35:11;;;;;;;;;;;9.30;99.90;;;;;;8358288;28;19916;-66
2021/05/17 22:39:11;;;;;;;;;;;9.30;99.90;;;;;;8340892;28;20546;-66
2021/05/17 22:43:12;;;;;;;;;;;9.30;99.90;;;;;;8358711;28;20375;-66
2021/05/17 22:47:12;;;;;;;;;;;9.20;99.90;;;;;;8358569;28;19948;-66
2021/05/17 22:51:13;;;;;;;;;;;9.20;99.90;;;;;;8358639;28;19909;-66
2021/05/17 22:55:15;;;;;;;;;;;9.20;99.90;;;;;;8358219;28;20398;-66
2021/05/17 22:59:16;;;;;;;;;;;9.20;99.90;;;;;;8358332;28;19994;-66
2021/05/17 23:03:16;;;;;;;;;;;9.20;99.90;;;;;;8340166;28;19959;-66
2021/05/17 23:07:17;;;;;;;;;;;9.20;99.90;;;;;;8358135;28;20620;-66
2021/05/17 23:11:17;;;;;;;;;;;9.20;99.90;;;;;;8363158;28;19909;-66
2021/05/17 23:15:18;;;;;;;;;;;9.20;99.90;;;;;;8363465;28;19909;-66
2021/05/17 23:19:19;;;;;;;;;;;9.30;99.90;;;;;;8363804;28;19920;-66
2021/05/17 23:23:24;;;;;;;;;;;9.20;99.90;;;;;;8345737;28;19909;-66
2021/05/17 23:31:44;;;;;;;;;;;9.30;99.90;;;;;;8363555;28;20002;-66
2021/05/17 23:35:45;;;;;;;;;;;9.30;99.90;;;;;;8363244;28;19908;-66
2021/05/17 23:39:47;;;;;;;;;;;9.30;99.90;;;;;;8363655;28;19912;-66
2021/05/17 23:43:47;;;;;;;;;;;9.20;99.90;;;;;;8363435;28;19909;-66
2021/05/17 23:47:48;;;;;;;;;;;9.20;99.90;;;;;;8363233;28;19915;-66
2021/05/17 23:51:48;;;;;;;;;;;9.00;99.90;;;;;;8345240;28;19909;-66
2021/05/17 23:55:49;;;;;;;;;;;9.00;99.90;;;;;;8362626;28;19909;-66
2021/05/17 23:59:49;;;;;;;;;;;9.00;99.90;;;;;;8362638;28;19913;-66
